sensor_id;sensor_type;location;lat;lon;timestamp;temperature;humidity
27266;DHT22;14766;51.380;13.762;2023-07-16T00:01:24;29.70;42.40
27266;DHT22;14766;51.380;13.762;2023-07-16T00:03:51;29.60;42.20
27266;DHT22;14766;51.380;13.762;2023-07-16T00:06:18;29.60;42.20
27266;DHT22;14766;51.380;13.762;2023-07-16T00:08:45;29.50;42.10
27266;DHT22;14766;51.380;13.762;2023-07-16T00:11:12;29.50;42.20
27266;DHT22;14766;51.380;13.762;2023-07-16T00:13:39;29.50;42.40
27266;DHT22;14766;51.380;13.762;2023-07-16T00:16:14;29.50;42.50
27266;DHT22;14766;51.380;13.762;2023-07-16T00:18:44;29.40;42.60
27266;DHT22;14766;51.380;13.762;2023-07-16T00:21:18;29.40;42.80
27266;DHT22;14766;51.380;13.762;2023-07-16T00:23:46;29.40;43.10
27266;DHT22;14766;51.380;13.762;2023-07-16T00:26:13;29.40;43.50
27266;DHT22;14766;51.380;13.762;2023-07-16T00:28:41;29.30;44.40
27266;DHT22;14766;51.380;13.762;2023-07-16T00:31:09;29.20;44.80
27266;DHT22;14766;51.380;13.762;2023-07-16T00:33:37;29.10;45.70
27266;DHT22;14766;51.380;13.762;2023-07-16T00:36:04;28.90;46.10
27266;DHT22;14766;51.380;13.762;2023-07-16T00:38:31;28.80;46.80
27266;DHT22;14766;51.380;13.762;2023-07-16T00:40:58;28.60;46.80
27266;DHT22;14766;51.380;13.762;2023-07-16T00:43:25;28.50;47.20
27266;DHT22;14766;51.380;13.762;2023-07-16T00:45:52;28.40;47.30
27266;DHT22;14766;51.380;13.762;2023-07-16T00:48:19;28.40;47.30
27266;DHT22;14766;51.380;13.762;2023-07-16T00:50:46;28.30;47.50
27266;DHT22;14766;51.380;13.762;2023-07-16T00:53:14;28.30;47.70
27266;DHT22;14766;51.380;13.762;2023-07-16T00:55:41;28.20;47.80
27266;DHT22;14766;51.380;13.762;2023-07-16T00:58:10;28.20;47.90
27266;DHT22;14766;51.380;13.762;2023-07-16T01:00:39;28.20;48.10
27266;DHT22;14766;51.380;13.762;2023-07-16T01:03:08;28.20;48.30
27266;DHT22;14766;51.380;13.762;2023-07-16T01:06:07;28.20;48.30
27266;DHT22;14766;51.380;13.762;2023-07-16T01:11:40;28.20;49.20
27266;DHT22;14766;51.380;13.762;2023-07-16T01:14:09;28.10;48.60
27266;DHT22;14766;51.380;13.762;2023-07-16T01:16:37;28.10;48.80
27266;DHT22;14766;51.380;13.762;2023-07-16T01:19:05;28.10;48.60
27266;DHT22;14766;51.380;13.762;2023-07-16T01:30:20;28.10;48.40
27266;DHT22;14766;51.380;13.762;2023-07-16T01:32:48;28.20;48.40
27266;DHT22;14766;51.380;13.762;2023-07-16T01:35:16;28.20;48.30
27266;DHT22;14766;51.380;13.762;2023-07-16T01:37:44;28.20;48.10
27266;DHT22;14766;51.380;13.762;2023-07-16T01:40:11;28.20;48.00
27266;DHT22;14766;51.380;13.762;2023-07-16T01:42:40;28.20;48.10
27266;DHT22;14766;51.380;13.762;2023-07-16T01:45:09;28.30;48.20
27266;DHT22;14766;51.380;13.762;2023-07-16T01:50:41;28.30;48.20
27266;DHT22;14766;51.380;13.762;2023-07-16T01:53:08;28.30;47.80
27266;DHT22;14766;51.380;13.762;2023-07-16T01:55:35;28.30;47.80
27266;DHT22;14766;51.380;13.762;2023-07-16T01:58:02;28.40;48.10
27266;DHT22;14766;51.380;13.762;2023-07-16T02:00:29;28.40;48.30
27266;DHT22;14766;51.380;13.762;2023-07-16T02:02:56;28.40;48.60
27266;DHT22;14766;51.380;13.762;2023-07-16T02:05:24;28.40;49.10
27266;DHT22;14766;51.380;13.762;2023-07-16T02:07:51;28.50;49.30
27266;DHT22;14766;51.380;13.762;2023-07-16T02:10:19;28.50;49.40
27266;DHT22;14766;51.380;13.762;2023-07-16T02:12:48;28.50;49.30
27266;DHT22;14766;51.380;13.762;2023-07-16T02:15:16;28.40;49.30
27266;DHT22;14766;51.380;13.762;2023-07-16T02:17:44;28.40;49.30
27266;DHT22;14766;51.380;13.762;2023-07-16T02:20:11;28.40;49.50
27266;DHT22;14766;51.380;13.762;2023-07-16T02:22:39;28.40;50.10
27266;DHT22;14766;51.380;13.762;2023-07-16T02:25:06;28.40;50.50
27266;DHT22;14766;51.380;13.762;2023-07-16T02:27:33;28.30;49.90
27266;DHT22;14766;51.380;13.762;2023-07-16T02:30:03;28.20;50.40
27266;DHT22;14766;51.380;13.762;2023-07-16T02:32:30;28.20;50.90
27266;DHT22;14766;51.380;13.762;2023-07-16T02:35:00;28.20;50.80
27266;DHT22;14766;51.380;13.762;2023-07-16T02:37:29;28.10;51.10
27266;DHT22;14766;51.380;13.762;2023-07-16T02:39:58;28.10;50.90
27266;DHT22;14766;51.380;13.762;2023-07-16T02:42:29;28.00;51.40
27266;DHT22;14766;51.380;13.762;2023-07-16T02:45:21;28.00;51.40
27266;DHT22;14766;51.380;13.762;2023-07-16T02:47:48;27.90;52.00
27266;DHT22;14766;51.380;13.762;2023-07-16T02:50:15;27.90;52.20
27266;DHT22;14766;51.380;13.762;2023-07-16T02:52:43;27.80;52.30
27266;DHT22;14766;51.380;13.762;2023-07-16T02:55:10;27.80;52.60
27266;DHT22;14766;51.380;13.762;2023-07-16T02:57:37;27.70;52.90
27266;DHT22;14766;51.380;13.762;2023-07-16T03:00:04;27.60;53.20
27266;DHT22;14766;51.380;13.762;2023-07-16T03:02:32;27.50;53.50
27266;DHT22;14766;51.380;13.762;2023-07-16T03:04:59;27.40;53.50
27266;DHT22;14766;51.380;13.762;2023-07-16T03:07:26;27.30;53.90
27266;DHT22;14766;51.380;13.762;2023-07-16T03:09:54;27.20;54.20
27266;DHT22;14766;51.380;13.762;2023-07-16T03:12:21;27.10;54.30
27266;DHT22;14766;51.380;13.762;2023-07-16T03:14:50;27.10;54.60
27266;DHT22;14766;51.380;13.762;2023-07-16T03:17:17;26.90;54.70
27266;DHT22;14766;51.380;13.762;2023-07-16T03:19:44;26.90;54.60
27266;DHT22;14766;51.380;13.762;2023-07-16T03:22:12;26.70;54.70
27266;DHT22;14766;51.380;13.762;2023-07-16T03:24:39;26.70;55.40
27266;DHT22;14766;51.380;13.762;2023-07-16T03:27:07;26.60;55.50
27266;DHT22;14766;51.380;13.762;2023-07-16T03:29:45;26.50;55.30
27266;DHT22;14766;51.380;13.762;2023-07-16T03:32:15;26.50;55.80
27266;DHT22;14766;51.380;13.762;2023-07-16T03:34:42;26.40;56.40
27266;DHT22;14766;51.380;13.762;2023-07-16T03:37:09;26.40;57.10
27266;DHT22;14766;51.380;13.762;2023-07-16T03:39:36;26.30;57.20
27266;DHT22;14766;51.380;13.762;2023-07-16T03:42:03;26.30;57.70
27266;DHT22;14766;51.380;13.762;2023-07-16T03:44:31;26.20;58.00
27266;DHT22;14766;51.380;13.762;2023-07-16T03:46:59;26.10;58.20
27266;DHT22;14766;51.380;13.762;2023-07-16T03:49:26;26.10;58.60
27266;DHT22;14766;51.380;13.762;2023-07-16T03:51:53;26.00;58.70
27266;DHT22;14766;51.380;13.762;2023-07-16T03:54:21;25.90;58.80
27266;DHT22;14766;51.380;13.762;2023-07-16T03:56:48;25.90;58.80
27266;DHT22;14766;51.380;13.762;2023-07-16T03:59:17;25.80;59.10
27266;DHT22;14766;51.380;13.762;2023-07-16T04:01:46;25.80;59.10
27266;DHT22;14766;51.380;13.762;2023-07-16T04:04:13;25.70;59.30
27266;DHT22;14766;51.380;13.762;2023-07-16T04:06:40;25.70;59.20
27266;DHT22;14766;51.380;13.762;2023-07-16T04:09:07;25.60;59.20
27266;DHT22;14766;51.380;13.762;2023-07-16T04:11:34;25.60;59.40
27266;DHT22;14766;51.380;13.762;2023-07-16T04:14:01;25.60;59.60
27266;DHT22;14766;51.380;13.762;2023-07-16T04:16:28;25.50;59.10
27266;DHT22;14766;51.380;13.762;2023-07-16T04:18:56;25.50;59.20
27266;DHT22;14766;51.380;13.762;2023-07-16T04:21:24;25.40;59.90
27266;DHT22;14766;51.380;13.762;2023-07-16T04:23:52;25.40;59.50
27266;DHT22;14766;51.380;13.762;2023-07-16T04:26:18;25.40;59.80
27266;DHT22;14766;51.380;13.762;2023-07-16T04:28:45;25.40;60.00
27266;DHT22;14766;51.380;13.762;2023-07-16T04:31:12;25.30;59.50
27266;DHT22;14766;51.380;13.762;2023-07-16T04:33:39;25.30;59.80
27266;DHT22;14766;51.380;13.762;2023-07-16T04:36:06;25.30;59.80
27266;DHT22;14766;51.380;13.762;2023-07-16T04:38:33;25.30;59.80
27266;DHT22;14766;51.380;13.762;2023-07-16T04:41:00;25.30;59.60
27266;DHT22;14766;51.380;13.762;2023-07-16T04:43:27;25.30;59.90
27266;DHT22;14766;51.380;13.762;2023-07-16T04:45:55;25.40;59.70
27266;DHT22;14766;51.380;13.762;2023-07-16T04:48:22;25.40;60.10
27266;DHT22;14766;51.380;13.762;2023-07-16T04:50:51;25.40;59.80
27266;DHT22;14766;51.380;13.762;2023-07-16T04:53:19;25.50;59.70
27266;DHT22;14766;51.380;13.762;2023-07-16T04:55:46;25.50;59.80
27266;DHT22;14766;51.380;13.762;2023-07-16T04:58:13;25.50;59.90
27266;DHT22;14766;51.380;13.762;2023-07-16T05:00:40;25.60;60.20
27266;DHT22;14766;51.380;13.762;2023-07-16T05:03:07;25.60;60.60
27266;DHT22;14766;51.380;13.762;2023-07-16T05:05:35;25.50;60.50
27266;DHT22;14766;51.380;13.762;2023-07-16T05:08:02;25.50;60.30
27266;DHT22;14766;51.380;13.762;2023-07-16T05:10:29;25.50;60.80
27266;DHT22;14766;51.380;13.762;2023-07-16T05:12:56;25.40;60.60
27266;DHT22;14766;51.380;13.762;2023-07-16T05:15:24;25.40;61.30
27266;DHT22;14766;51.380;13.762;2023-07-16T05:17:52;25.40;61.50
27266;DHT22;14766;51.380;13.762;2023-07-16T05:20:20;25.40;61.40
27266;DHT22;14766;51.380;13.762;2023-07-16T05:22:47;25.40;61.80
27266;DHT22;14766;51.380;13.762;2023-07-16T05:25:15;25.40;61.30
27266;DHT22;14766;51.380;13.762;2023-07-16T05:27:42;25.40;61.70
27266;DHT22;14766;51.380;13.762;2023-07-16T05:30:09;25.40;61.80
27266;DHT22;14766;51.380;13.762;2023-07-16T05:32:36;25.40;61.60
27266;DHT22;14766;51.380;13.762;2023-07-16T05:35:03;25.40;61.80
27266;DHT22;14766;51.380;13.762;2023-07-16T05:37:31;25.40;61.60
27266;DHT22;14766;51.380;13.762;2023-07-16T05:39:59;25.40;61.90
27266;DHT22;14766;51.380;13.762;2023-07-16T05:42:26;25.40;62.30
27266;DHT22;14766;51.380;13.762;2023-07-16T05:44:53;25.40;62.20
27266;DHT22;14766;51.380;13.762;2023-07-16T05:47:21;25.40;62.40
27266;DHT22;14766;51.380;13.762;2023-07-16T05:49:50;25.40;63.10
27266;DHT22;14766;51.380;13.762;2023-07-16T05:52:19;25.40;62.90
27266;DHT22;14766;51.380;13.762;2023-07-16T05:54:46;25.50;63.10
27266;DHT22;14766;51.380;13.762;2023-07-16T05:57:13;25.50;63.00
27266;DHT22;14766;51.380;13.762;2023-07-16T05:59:40;25.60;62.90
27266;DHT22;14766;51.380;13.762;2023-07-16T06:02:08;25.60;62.50
27266;DHT22;14766;51.380;13.762;2023-07-16T06:04:35;25.60;62.70
27266;DHT22;14766;51.380;13.762;2023-07-16T06:07:03;25.60;62.50
27266;DHT22;14766;51.380;13.762;2023-07-16T06:09:30;25.70;62.50
27266;DHT22;14766;51.380;13.762;2023-07-16T06:11:58;25.70;62.30
27266;DHT22;14766;51.380;13.762;2023-07-16T06:14:27;25.70;62.10
27266;DHT22;14766;51.380;13.762;2023-07-16T06:16:55;25.80;62.00
27266;DHT22;14766;51.380;13.762;2023-07-16T06:19:23;25.80;62.10
27266;DHT22;14766;51.380;13.762;2023-07-16T06:21:50;25.80;61.90
27266;DHT22;14766;51.380;13.762;2023-07-16T06:24:17;25.90;62.50
27266;DHT22;14766;51.380;13.762;2023-07-16T06:26:44;25.90;62.70
27266;DHT22;14766;51.380;13.762;2023-07-16T06:29:11;26.00;61.80
27266;DHT22;14766;51.380;13.762;2023-07-16T06:31:42;26.10;61.90
27266;DHT22;14766;51.380;13.762;2023-07-16T06:34:12;26.30;61.70
27266;DHT22;14766;51.380;13.762;2023-07-16T06:36:41;26.40;61.00
27266;DHT22;14766;51.380;13.762;2023-07-16T06:39:08;26.50;60.80
27266;DHT22;14766;51.380;13.762;2023-07-16T06:41:35;26.60;61.20
27266;DHT22;14766;51.380;13.762;2023-07-16T06:44:03;26.70;60.40
27266;DHT22;14766;51.380;13.762;2023-07-16T06:46:30;26.90;58.90
27266;DHT22;14766;51.380;13.762;2023-07-16T06:48:57;27.00;57.20
27266;DHT22;14766;51.380;13.762;2023-07-16T06:51:24;27.10;57.20
27266;DHT22;14766;51.380;13.762;2023-07-16T06:53:51;27.20;56.60
27266;DHT22;14766;51.380;13.762;2023-07-16T06:56:18;27.30;56.80
27266;DHT22;14766;51.380;13.762;2023-07-16T06:58:45;27.40;55.60
27266;DHT22;14766;51.380;13.762;2023-07-16T07:01:12;27.50;55.70
27266;DHT22;14766;51.380;13.762;2023-07-16T07:03:40;27.60;54.60
27266;DHT22;14766;51.380;13.762;2023-07-16T07:06:07;27.70;54.40
27266;DHT22;14766;51.380;13.762;2023-07-16T07:08:34;27.70;53.80
27266;DHT22;14766;51.380;13.762;2023-07-16T07:11:01;27.80;52.90
27266;DHT22;14766;51.380;13.762;2023-07-16T07:13:29;27.90;53.30
27266;DHT22;14766;51.380;13.762;2023-07-16T07:15:56;27.90;51.70
27266;DHT22;14766;51.380;13.762;2023-07-16T07:18:24;28.00;51.60
27266;DHT22;14766;51.380;13.762;2023-07-16T07:20:51;28.00;51.20
27266;DHT22;14766;51.380;13.762;2023-07-16T07:23:18;28.10;51.50
27266;DHT22;14766;51.380;13.762;2023-07-16T07:25:52;28.20;51.90
27266;DHT22;14766;51.380;13.762;2023-07-16T07:28:20;28.30;50.90
27266;DHT22;14766;51.380;13.762;2023-07-16T07:30:47;28.50;50.00
27266;DHT22;14766;51.380;13.762;2023-07-16T07:33:14;28.60;50.70
27266;DHT22;14766;51.380;13.762;2023-07-16T07:35:41;28.80;50.80
27266;DHT22;14766;51.380;13.762;2023-07-16T07:38:08;28.90;50.80
27266;DHT22;14766;51.380;13.762;2023-07-16T07:40:36;29.10;51.30
27266;DHT22;14766;51.380;13.762;2023-07-16T07:43:03;29.40;50.70
27266;DHT22;14766;51.380;13.762;2023-07-16T07:45:30;29.60;48.90
27266;DHT22;14766;51.380;13.762;2023-07-16T07:47:57;29.80;48.00
27266;DHT22;14766;51.380;13.762;2023-07-16T07:50:24;29.90;47.10
27266;DHT22;14766;51.380;13.762;2023-07-16T07:52:52;30.10;47.50
27266;DHT22;14766;51.380;13.762;2023-07-16T07:55:20;30.20;46.30
27266;DHT22;14766;51.380;13.762;2023-07-16T07:57:47;30.30;45.70
27266;DHT22;14766;51.380;13.762;2023-07-16T08:00:14;30.30;45.10
27266;DHT22;14766;51.380;13.762;2023-07-16T08:02:41;30.40;44.50
27266;DHT22;14766;51.380;13.762;2023-07-16T08:05:08;30.50;45.20
27266;DHT22;14766;51.380;13.762;2023-07-16T08:07:36;30.60;43.80
27266;DHT22;14766;51.380;13.762;2023-07-16T08:10:03;30.60;43.80
27266;DHT22;14766;51.380;13.762;2023-07-16T08:12:31;30.70;43.40
27266;DHT22;14766;51.380;13.762;2023-07-16T08:14:58;30.90;42.20
27266;DHT22;14766;51.380;13.762;2023-07-16T08:17:26;30.90;40.50
27266;DHT22;14766;51.380;13.762;2023-07-16T08:19:53;31.00;41.00
27266;DHT22;14766;51.380;13.762;2023-07-16T08:22:20;31.00;41.70
27266;DHT22;14766;51.380;13.762;2023-07-16T08:24:47;31.10;41.80
27266;DHT22;14766;51.380;13.762;2023-07-16T08:27:14;31.20;41.30
27266;DHT22;14766;51.380;13.762;2023-07-16T08:29:41;31.30;41.40
27266;DHT22;14766;51.380;13.762;2023-07-16T08:32:08;31.50;40.60
27266;DHT22;14766;51.380;13.762;2023-07-16T08:34:35;31.60;39.60
27266;DHT22;14766;51.380;13.762;2023-07-16T08:37:02;31.70;39.90
27266;DHT22;14766;51.380;13.762;2023-07-16T08:39:31;31.80;38.30
27266;DHT22;14766;51.380;13.762;2023-07-16T08:41:58;31.80;38.30
27266;DHT22;14766;51.380;13.762;2023-07-16T08:44:26;31.90;37.40
27266;DHT22;14766;51.380;13.762;2023-07-16T08:46:53;32.00;36.50
27266;DHT22;14766;51.380;13.762;2023-07-16T08:49:22;32.10;36.50
27266;DHT22;14766;51.380;13.762;2023-07-16T08:51:52;32.20;37.80
27266;DHT22;14766;51.380;13.762;2023-07-16T08:54:22;32.40;36.90
27266;DHT22;14766;51.380;13.762;2023-07-16T08:56:50;32.50;36.70
27266;DHT22;14766;51.380;13.762;2023-07-16T08:59:18;32.70;36.10
27266;DHT22;14766;51.380;13.762;2023-07-16T09:01:48;32.80;36.40
27266;DHT22;14766;51.380;13.762;2023-07-16T09:04:16;32.90;34.60
27266;DHT22;14766;51.380;13.762;2023-07-16T09:06:45;33.10;33.80
27266;DHT22;14766;51.380;13.762;2023-07-16T09:09:22;33.20;33.00
27266;DHT22;14766;51.380;13.762;2023-07-16T09:11:50;33.20;32.30
27266;DHT22;14766;51.380;13.762;2023-07-16T09:14:21;33.20;31.60
27266;DHT22;14766;51.380;13.762;2023-07-16T09:16:50;33.10;32.30
27266;DHT22;14766;51.380;13.762;2023-07-16T09:19:18;33.10;32.30
27266;DHT22;14766;51.380;13.762;2023-07-16T09:21:49;32.90;31.90
27266;DHT22;14766;51.380;13.762;2023-07-16T09:24:17;32.80;31.90
27266;DHT22;14766;51.380;13.762;2023-07-16T09:26:52;32.70;32.00
27266;DHT22;14766;51.380;13.762;2023-07-16T09:29:20;32.50;31.90
27266;DHT22;14766;51.380;13.762;2023-07-16T09:31:55;32.50;32.80
27266;DHT22;14766;51.380;13.762;2023-07-16T09:34:23;32.40;32.50
27266;DHT22;14766;51.380;13.762;2023-07-16T09:36:50;32.30;32.50
27266;DHT22;14766;51.380;13.762;2023-07-16T09:39:22;32.10;31.70
27266;DHT22;14766;51.380;13.762;2023-07-16T09:41:50;32.10;31.90
27266;DHT22;14766;51.380;13.762;2023-07-16T09:44:19;32.00;32.30
27266;DHT22;14766;51.380;13.762;2023-07-16T09:46:47;32.10;33.70
27266;DHT22;14766;51.380;13.762;2023-07-16T09:49:15;32.10;32.10
27266;DHT22;14766;51.380;13.762;2023-07-16T09:51:43;32.20;32.40
27266;DHT22;14766;51.380;13.762;2023-07-16T09:54:14;32.30;32.10
27266;DHT22;14766;51.380;13.762;2023-07-16T09:56:48;32.30;32.20
27266;DHT22;14766;51.380;13.762;2023-07-16T09:59:21;32.30;32.60
27266;DHT22;14766;51.380;13.762;2023-07-16T10:01:54;32.40;32.90
27266;DHT22;14766;51.380;13.762;2023-07-16T10:04:22;32.40;32.40
27266;DHT22;14766;51.380;13.762;2023-07-16T10:06:59;32.40;31.90
27266;DHT22;14766;51.380;13.762;2023-07-16T10:12:16;32.50;32.80
27266;DHT22;14766;51.380;13.762;2023-07-16T10:14:48;32.60;32.40
27266;DHT22;14766;51.380;13.762;2023-07-16T10:17:24;32.70;32.10
27266;DHT22;14766;51.380;13.762;2023-07-16T10:20:10;32.80;31.80
27266;DHT22;14766;51.380;13.762;2023-07-16T10:22:46;32.90;31.10
27266;DHT22;14766;51.380;13.762;2023-07-16T10:27:48;32.90;31.30
27266;DHT22;14766;51.380;13.762;2023-07-16T10:30:16;33.00;31.40
27266;DHT22;14766;51.380;13.762;2023-07-16T10:32:43;33.10;31.90
27266;DHT22;14766;51.380;13.762;2023-07-16T10:35:11;33.10;31.70
27266;DHT22;14766;51.380;13.762;2023-07-16T10:37:40;33.20;31.40
27266;DHT22;14766;51.380;13.762;2023-07-16T10:40:14;33.20;31.20
27266;DHT22;14766;51.380;13.762;2023-07-16T10:42:43;33.30;30.80
27266;DHT22;14766;51.380;13.762;2023-07-16T10:45:11;33.30;31.60
27266;DHT22;14766;51.380;13.762;2023-07-16T10:47:50;33.30;32.70
27266;DHT22;14766;51.380;13.762;2023-07-16T10:50:19;33.30;31.20
27266;DHT22;14766;51.380;13.762;2023-07-16T10:52:56;33.40;31.70
27266;DHT22;14766;51.380;13.762;2023-07-16T10:55:25;33.50;30.40
27266;DHT22;14766;51.380;13.762;2023-07-16T10:57:52;33.50;30.60
27266;DHT22;14766;51.380;13.762;2023-07-16T11:00:21;33.50;30.60
27266;DHT22;14766;51.380;13.762;2023-07-16T11:02:52;33.60;30.80
27266;DHT22;14766;51.380;13.762;2023-07-16T11:05:19;33.60;30.80
27266;DHT22;14766;51.380;13.762;2023-07-16T11:07:47;33.70;30.30
27266;DHT22;14766;51.380;13.762;2023-07-16T11:10:22;33.70;29.90
27266;DHT22;14766;51.380;13.762;2023-07-16T11:12:52;33.70;29.30
27266;DHT22;14766;51.380;13.762;2023-07-16T11:15:33;33.60;29.50
27266;DHT22;14766;51.380;13.762;2023-07-16T11:18:02;33.50;29.40
27266;DHT22;14766;51.380;13.762;2023-07-16T11:20:31;33.40;29.30
27266;DHT22;14766;51.380;13.762;2023-07-16T11:22:59;33.30;29.20
27266;DHT22;14766;51.380;13.762;2023-07-16T11:25:28;33.10;28.20
27266;DHT22;14766;51.380;13.762;2023-07-16T11:27:56;33.00;28.40
27266;DHT22;14766;51.380;13.762;2023-07-16T11:30:24;33.00;29.10
27266;DHT22;14766;51.380;13.762;2023-07-16T11:32:52;33.00;29.20
27266;DHT22;14766;51.380;13.762;2023-07-16T11:35:21;33.10;28.70
27266;DHT22;14766;51.380;13.762;2023-07-16T11:37:48;33.10;28.50
27266;DHT22;14766;51.380;13.762;2023-07-16T11:40:17;33.20;28.60
27266;DHT22;14766;51.380;13.762;2023-07-16T11:42:46;33.20;28.20
27266;DHT22;14766;51.380;13.762;2023-07-16T11:45:20;33.30;28.30
27266;DHT22;14766;51.380;13.762;2023-07-16T11:47:47;33.30;28.90
27266;DHT22;14766;51.380;13.762;2023-07-16T11:50:15;33.30;29.10
27266;DHT22;14766;51.380;13.762;2023-07-16T11:52:42;33.30;28.80
27266;DHT22;14766;51.380;13.762;2023-07-16T11:55:09;33.30;28.50
27266;DHT22;14766;51.380;13.762;2023-07-16T11:57:36;33.30;28.00
27266;DHT22;14766;51.380;13.762;2023-07-16T12:00:05;33.30;27.60
27266;DHT22;14766;51.380;13.762;2023-07-16T12:02:33;33.20;28.40
27266;DHT22;14766;51.380;13.762;2023-07-16T12:05:01;33.20;27.70
27266;DHT22;14766;51.380;13.762;2023-07-16T12:07:33;33.20;27.70
27266;DHT22;14766;51.380;13.762;2023-07-16T12:10:06;33.20;28.50
27266;DHT22;14766;51.380;13.762;2023-07-16T12:12:34;33.20;27.70
27266;DHT22;14766;51.380;13.762;2023-07-16T12:15:06;33.30;27.60
27266;DHT22;14766;51.380;13.762;2023-07-16T12:17:34;33.30;28.10
27266;DHT22;14766;51.380;13.762;2023-07-16T12:20:02;33.40;27.60
27266;DHT22;14766;51.380;13.762;2023-07-16T12:22:31;33.40;27.70
27266;DHT22;14766;51.380;13.762;2023-07-16T12:24:59;33.40;27.50
27266;DHT22;14766;51.380;13.762;2023-07-16T12:27:27;33.40;28.00
27266;DHT22;14766;51.380;13.762;2023-07-16T12:29:54;33.50;27.80
27266;DHT22;14766;51.380;13.762;2023-07-16T12:32:21;33.50;28.00
27266;DHT22;14766;51.380;13.762;2023-07-16T12:34:49;33.50;28.00
27266;DHT22;14766;51.380;13.762;2023-07-16T12:37:17;33.60;27.20
27266;DHT22;14766;51.380;13.762;2023-07-16T12:39:45;33.60;27.50
27266;DHT22;14766;51.380;13.762;2023-07-16T12:42:12;33.60;27.30
27266;DHT22;14766;51.380;13.762;2023-07-16T12:44:39;33.50;27.20
27266;DHT22;14766;51.380;13.762;2023-07-16T12:47:06;33.50;27.50
27266;DHT22;14766;51.380;13.762;2023-07-16T12:49:36;33.40;27.80
27266;DHT22;14766;51.380;13.762;2023-07-16T12:52:03;33.40;27.70
27266;DHT22;14766;51.380;13.762;2023-07-16T12:54:31;33.40;27.80
27266;DHT22;14766;51.380;13.762;2023-07-16T12:56:59;33.40;27.60
27266;DHT22;14766;51.380;13.762;2023-07-16T12:59:26;33.40;27.60
27266;DHT22;14766;51.380;13.762;2023-07-16T13:01:54;33.30;27.70
27266;DHT22;14766;51.380;13.762;2023-07-16T13:04:24;33.30;28.10
27266;DHT22;14766;51.380;13.762;2023-07-16T13:06:52;33.30;28.50
27266;DHT22;14766;51.380;13.762;2023-07-16T13:09:19;33.30;28.20
27266;DHT22;14766;51.380;13.762;2023-07-16T13:11:47;33.40;28.10
27266;DHT22;14766;51.380;13.762;2023-07-16T13:14:14;33.40;28.10
27266;DHT22;14766;51.380;13.762;2023-07-16T13:16:42;33.40;28.30
27266;DHT22;14766;51.380;13.762;2023-07-16T13:19:09;33.40;28.20
27266;DHT22;14766;51.380;13.762;2023-07-16T13:21:36;33.40;27.80
27266;DHT22;14766;51.380;13.762;2023-07-16T13:24:03;33.40;28.00
27266;DHT22;14766;51.380;13.762;2023-07-16T13:26:30;33.40;29.00
27266;DHT22;14766;51.380;13.762;2023-07-16T13:28:57;33.40;28.70
27266;DHT22;14766;51.380;13.762;2023-07-16T13:31:24;33.40;28.60
27266;DHT22;14766;51.380;13.762;2023-07-16T13:33:51;33.40;28.40
27266;DHT22;14766;51.380;13.762;2023-07-16T13:36:20;33.40;28.30
27266;DHT22;14766;51.380;13.762;2023-07-16T13:38:52;33.40;28.20
27266;DHT22;14766;51.380;13.762;2023-07-16T13:41:20;33.40;28.20
27266;DHT22;14766;51.380;13.762;2023-07-16T13:43:47;33.30;28.50
27266;DHT22;14766;51.380;13.762;2023-07-16T13:46:14;33.30;28.40
27266;DHT22;14766;51.380;13.762;2023-07-16T13:48:45;33.30;27.80
27266;DHT22;14766;51.380;13.762;2023-07-16T13:51:26;33.30;28.20
27266;DHT22;14766;51.380;13.762;2023-07-16T13:53:55;33.20;28.30
27266;DHT22;14766;51.380;13.762;2023-07-16T13:56:23;33.10;28.00
27266;DHT22;14766;51.380;13.762;2023-07-16T13:58:50;33.10;28.20
27266;DHT22;14766;51.380;13.762;2023-07-16T14:01:18;33.00;28.50
27266;DHT22;14766;51.380;13.762;2023-07-16T14:03:45;33.00;28.60
27266;DHT22;14766;51.380;13.762;2023-07-16T14:06:13;32.90;28.10
27266;DHT22;14766;51.380;13.762;2023-07-16T14:08:42;32.90;28.20
27266;DHT22;14766;51.380;13.762;2023-07-16T14:11:10;32.90;27.60
27266;DHT22;14766;51.380;13.762;2023-07-16T14:13:37;32.80;27.60
27266;DHT22;14766;51.380;13.762;2023-07-16T14:16:04;32.80;27.60
27266;DHT22;14766;51.380;13.762;2023-07-16T14:18:31;32.70;27.60
27266;DHT22;14766;51.380;13.762;2023-07-16T14:20:58;32.70;27.40
27266;DHT22;14766;51.380;13.762;2023-07-16T14:23:26;32.70;27.60
27266;DHT22;14766;51.380;13.762;2023-07-16T14:25:53;32.70;27.60
27266;DHT22;14766;51.380;13.762;2023-07-16T14:28:22;32.70;28.10
27266;DHT22;14766;51.380;13.762;2023-07-16T14:30:50;32.70;28.40
27266;DHT22;14766;51.380;13.762;2023-07-16T14:33:20;32.80;28.50
27266;DHT22;14766;51.380;13.762;2023-07-16T14:35:49;32.90;28.40
27266;DHT22;14766;51.380;13.762;2023-07-16T14:38:16;32.90;28.00
27266;DHT22;14766;51.380;13.762;2023-07-16T14:40:43;32.90;27.90
27266;DHT22;14766;51.380;13.762;2023-07-16T14:43:11;32.90;27.90
27266;DHT22;14766;51.380;13.762;2023-07-16T14:45:38;32.90;27.50
27266;DHT22;14766;51.380;13.762;2023-07-16T14:48:06;32.90;28.00
27266;DHT22;14766;51.380;13.762;2023-07-16T14:50:33;32.90;28.40
27266;DHT22;14766;51.380;13.762;2023-07-16T14:53:00;33.00;28.40
27266;DHT22;14766;51.380;13.762;2023-07-16T14:55:27;32.90;27.90
27266;DHT22;14766;51.380;13.762;2023-07-16T14:57:54;33.00;28.00
27266;DHT22;14766;51.380;13.762;2023-07-16T15:00:21;33.10;28.30
27266;DHT22;14766;51.380;13.762;2023-07-16T15:02:48;33.10;27.90
27266;DHT22;14766;51.380;13.762;2023-07-16T15:05:16;33.10;27.60
27266;DHT22;14766;51.380;13.762;2023-07-16T15:07:43;33.00;27.50
27266;DHT22;14766;51.380;13.762;2023-07-16T15:10:10;33.00;27.60
27266;DHT22;14766;51.380;13.762;2023-07-16T15:12:37;32.90;27.70
27266;DHT22;14766;51.380;13.762;2023-07-16T15:15:07;32.90;27.50
27266;DHT22;14766;51.380;13.762;2023-07-16T15:17:34;32.90;27.60
27266;DHT22;14766;51.380;13.762;2023-07-16T15:20:01;32.80;27.00
27266;DHT22;14766;51.380;13.762;2023-07-16T15:22:31;32.80;27.20
27266;DHT22;14766;51.380;13.762;2023-07-16T15:25:00;32.70;26.90
27266;DHT22;14766;51.380;13.762;2023-07-16T15:27:27;32.60;26.80
27266;DHT22;14766;51.380;13.762;2023-07-16T15:29:55;32.60;26.40
27266;DHT22;14766;51.380;13.762;2023-07-16T15:32:23;32.50;26.80
27266;DHT22;14766;51.380;13.762;2023-07-16T15:34:51;32.50;26.00
27266;DHT22;14766;51.380;13.762;2023-07-16T15:37:18;32.50;26.40
27266;DHT22;14766;51.380;13.762;2023-07-16T15:39:45;32.40;26.40
27266;DHT22;14766;51.380;13.762;2023-07-16T15:42:12;32.30;26.50